sensor_id;sensor_type;location;lat;lon;timestamp;temperature;humidity
21950;DHT22;11139;51.284;7.226;2022-12-18T00:00:28;-0.50;99.90
21950;DHT22;11139;51.284;7.226;2022-12-18T00:02:53;-0.50;99.90
21950;DHT22;11139;51.284;7.226;2022-12-18T00:05:19;-0.50;99.90
21950;DHT22;11139;51.284;7.226;2022-12-18T00:07:44;-0.50;99.90
21950;DHT22;11139;51.284;7.226;2022-12-18T00:10:09;-0.60;99.90
21950;DHT22;11139;51.284;7.226;2022-12-18T00:12:35;-0.60;99.90
21950;DHT22;11139;51.284;7.226;2022-12-18T00:15:00;-0.50;99.90
21950;DHT22;11139;51.284;7.226;2022-12-18T00:17:26;-0.50;99.90
21950;DHT22;11139;51.284;7.226;2022-12-18T00:19:51;-0.50;99.90
21950;DHT22;11139;51.284;7.226;2022-12-18T00:22:17;-0.50;99.90
21950;DHT22;11139;51.284;7.226;2022-12-18T00:24:42;-0.50;99.90
21950;DHT22;11139;51.284;7.226;2022-12-18T00:27:08;-0.60;99.90
21950;DHT22;11139;51.284;7.226;2022-12-18T00:29:33;-0.60;99.90
21950;DHT22;11139;51.284;7.226;2022-12-18T00:31:59;-0.60;99.90
21950;DHT22;11139;51.284;7.226;2022-12-18T00:34:24;-0.60;99.90
21950;DHT22;11139;51.284;7.226;2022-12-18T00:36:50;-0.60;99.90
21950;DHT22;11139;51.284;7.226;2022-12-18T00:39:15;-0.60;99.90
21950;DHT22;11139;51.284;7.226;2022-12-18T00:41:41;-0.60;99.90
21950;DHT22;11139;51.284;7.226;2022-12-18T00:44:25;-0.60;99.90
21950;DHT22;11139;51.284;7.226;2022-12-18T00:46:52;-0.60;99.90
21950;DHT22;11139;51.284;7.226;2022-12-18T00:49:18;-0.70;99.90
21950;DHT22;11139;51.284;7.226;2022-12-18T00:51:44;-0.70;99.90
21950;DHT22;11139;51.284;7.226;2022-12-18T00:54:10;-0.70;99.90
21950;DHT22;11139;51.284;7.226;2022-12-18T00:56:37;-0.70;99.90
21950;DHT22;11139;51.284;7.226;2022-12-18T00:59:02;-0.70;99.90
21950;DHT22;11139;51.284;7.226;2022-12-18T01:01:28;-0.70;99.90
21950;DHT22;11139;51.284;7.226;2022-12-18T01:03:53;-0.70;99.90
21950;DHT22;11139;51.284;7.226;2022-12-18T01:06:19;-0.70;99.90
21950;DHT22;11139;51.284;7.226;2022-12-18T01:08:45;-0.70;99.90
21950;DHT22;11139;51.284;7.226;2022-12-18T01:11:11;-0.70;99.90
21950;DHT22;11139;51.284;7.226;2022-12-18T01:13:37;-0.70;99.90
21950;DHT22;11139;51.284;7.226;2022-12-18T01:16:03;-0.70;99.90
21950;DHT22;11139;51.284;7.226;2022-12-18T01:18:28;-0.70;99.90
21950;DHT22;11139;51.284;7.226;2022-12-18T01:20:54;-0.70;99.90
21950;DHT22;11139;51.284;7.226;2022-12-18T01:23:19;-0.70;99.90
21950;DHT22;11139;51.284;7.226;2022-12-18T01:25:45;-0.70;99.90
21950;DHT22;11139;51.284;7.226;2022-12-18T01:28:10;-0.70;99.90
21950;DHT22;11139;51.284;7.226;2022-12-18T01:30:36;-0.70;99.90
21950;DHT22;11139;51.284;7.226;2022-12-18T01:33:03;-0.70;99.90
21950;DHT22;11139;51.284;7.226;2022-12-18T01:35:29;-0.70;99.90
21950;DHT22;11139;51.284;7.226;2022-12-18T01:37:54;-0.70;99.90
21950;DHT22;11139;51.284;7.226;2022-12-18T01:40:20;-0.70;99.90
21950;DHT22;11139;51.284;7.226;2022-12-18T01:42:50;-0.70;99.90
21950;DHT22;11139;51.284;7.226;2022-12-18T01:47:45;-0.70;99.90
21950;DHT22;11139;51.284;7.226;2022-12-18T01:52:41;-0.80;99.90
21950;DHT22;11139;51.284;7.226;2022-12-18T01:55:07;-0.80;99.90
21950;DHT22;11139;51.284;7.226;2022-12-18T01:57:33;-0.80;99.90
21950;DHT22;11139;51.284;7.226;2022-12-18T02:00:00;-0.80;99.90
21950;DHT22;11139;51.284;7.226;2022-12-18T02:02:27;-0.80;99.90
21950;DHT22;11139;51.284;7.226;2022-12-18T02:04:53;-0.80;99.90
21950;DHT22;11139;51.284;7.226;2022-12-18T02:12:18;-0.80;99.90
21950;DHT22;11139;51.284;7.226;2022-12-18T02:14:46;-0.80;99.90
21950;DHT22;11139;51.284;7.226;2022-12-18T02:17:16;-0.80;99.90
21950;DHT22;11139;51.284;7.226;2022-12-18T02:20:01;-0.90;99.90
21950;DHT22;11139;51.284;7.226;2022-12-18T02:27:30;-0.90;99.90
21950;DHT22;11139;51.284;7.226;2022-12-18T02:29:57;-0.80;99.90
21950;DHT22;11139;51.284;7.226;2022-12-18T02:32:25;-0.80;99.90
21950;DHT22;11139;51.284;7.226;2022-12-18T02:34:52;-0.80;99.90
21950;DHT22;11139;51.284;7.226;2022-12-18T02:37:19;-0.90;99.90
21950;DHT22;11139;51.284;7.226;2022-12-18T02:39:46;-0.90;99.90
21950;DHT22;11139;51.284;7.226;2022-12-18T02:42:12;-0.90;99.90
21950;DHT22;11139;51.284;7.226;2022-12-18T02:44:42;-0.90;99.90
21950;DHT22;11139;51.284;7.226;2022-12-18T02:47:09;-0.90;99.90
21950;DHT22;11139;51.284;7.226;2022-12-18T02:50:19;-0.90;99.90
21950;DHT22;11139;51.284;7.226;2022-12-18T02:52:26;-0.90;99.90
21950;DHT22;11139;51.284;7.226;2022-12-18T02:57:23;-0.90;99.90
21950;DHT22;11139;51.284;7.226;2022-12-18T02:59:54;-1.00;99.90
21950;DHT22;11139;51.284;7.226;2022-12-18T03:04:49;-1.00;99.90
21950;DHT22;11139;51.284;7.226;2022-12-18T03:07:18;-0.90;99.90
21950;DHT22;11139;51.284;7.226;2022-12-18T03:09:46;-0.90;99.90
21950;DHT22;11139;51.284;7.226;2022-12-18T03:17:26;-1.00;99.90
21950;DHT22;11139;51.284;7.226;2022-12-18T03:19:52;-1.00;99.90
21950;DHT22;11139;51.284;7.226;2022-12-18T03:22:20;-1.00;99.90
21950;DHT22;11139;51.284;7.226;2022-12-18T03:24:46;-1.00;99.90
21950;DHT22;11139;51.284;7.226;2022-12-18T03:27:13;-1.00;99.90
21950;DHT22;11139;51.284;7.226;2022-12-18T03:29:51;-1.00;99.90
21950;DHT22;11139;51.284;7.226;2022-12-18T03:32:21;-1.00;99.90
21950;DHT22;11139;51.284;7.226;2022-12-18T03:34:49;-1.00;99.90
21950;DHT22;11139;51.284;7.226;2022-12-18T03:37:16;-1.00;99.90
21950;DHT22;11139;51.284;7.226;2022-12-18T03:39:41;-1.00;99.90
21950;DHT22;11139;51.284;7.226;2022-12-18T03:47:33;-1.00;99.90
21950;DHT22;11139;51.284;7.226;2022-12-18T03:52:45;-1.00;99.90
21950;DHT22;11139;51.284;7.226;2022-12-18T03:55:12;-1.00;99.90
21950;DHT22;11139;51.284;7.226;2022-12-18T03:57:38;-1.00;99.90
21950;DHT22;11139;51.284;7.226;2022-12-18T04:00:07;-1.10;99.90
21950;DHT22;11139;51.284;7.226;2022-12-18T04:02:33;-1.00;99.90
21950;DHT22;11139;51.284;7.226;2022-12-18T04:05:00;-1.10;99.90
21950;DHT22;11139;51.284;7.226;2022-12-18T04:07:26;-1.00;99.90
21950;DHT22;11139;51.284;7.226;2022-12-18T04:09:53;-1.10;99.90
21950;DHT22;11139;51.284;7.226;2022-12-18T04:12:19;-1.10;99.90
21950;DHT22;11139;51.284;7.226;2022-12-18T04:14:45;-1.10;99.90
21950;DHT22;11139;51.284;7.226;2022-12-18T04:17:11;-1.10;99.90
21950;DHT22;11139;51.284;7.226;2022-12-18T04:19:36;-1.10;99.90
21950;DHT22;11139;51.284;7.226;2022-12-18T04:22:01;-1.10;99.90
21950;DHT22;11139;51.284;7.226;2022-12-18T04:24:27;-1.10;99.90
21950;DHT22;11139;51.284;7.226;2022-12-18T04:26:52;-1.10;99.90
21950;DHT22;11139;51.284;7.226;2022-12-18T04:29:18;-1.10;99.90
21950;DHT22;11139;51.284;7.226;2022-12-18T04:31:43;-1.10;99.90
21950;DHT22;11139;51.284;7.226;2022-12-18T04:34:09;-1.10;99.90
21950;DHT22;11139;51.284;7.226;2022-12-18T04:36:34;-1.10;99.90
21950;DHT22;11139;51.284;7.226;2022-12-18T04:39:00;-1.10;99.90
21950;DHT22;11139;51.284;7.226;2022-12-18T04:41:25;-1.10;99.90
21950;DHT22;11139;51.284;7.226;2022-12-18T04:43:51;-1.10;99.90
21950;DHT22;11139;51.284;7.226;2022-12-18T04:46:16;-1.10;99.90
21950;DHT22;11139;51.284;7.226;2022-12-18T04:48:44;-1.20;99.90
21950;DHT22;11139;51.284;7.226;2022-12-18T04:51:10;-1.20;99.90
21950;DHT22;11139;51.284;7.226;2022-12-18T04:53:35;-1.20;99.90
21950;DHT22;11139;51.284;7.226;2022-12-18T04:56:11;-1.20;99.90
21950;DHT22;11139;51.284;7.226;2022-12-18T04:58:37;-1.20;99.90
21950;DHT22;11139;51.284;7.226;2022-12-18T05:01:04;-1.20;99.90
21950;DHT22;11139;51.284;7.226;2022-12-18T05:03:29;-1.20;99.90
21950;DHT22;11139;51.284;7.226;2022-12-18T05:05:55;-1.20;99.90
21950;DHT22;11139;51.284;7.226;2022-12-18T05:08:21;-1.20;99.90
21950;DHT22;11139;51.284;7.226;2022-12-18T05:10:46;-1.20;99.90
21950;DHT22;11139;51.284;7.226;2022-12-18T05:13:12;-1.20;99.90
21950;DHT22;11139;51.284;7.226;2022-12-18T05:15:37;-1.20;99.90
21950;DHT22;11139;51.284;7.226;2022-12-18T05:18:03;-1.20;99.90
21950;DHT22;11139;51.284;7.226;2022-12-18T05:20:29;-1.20;99.90
21950;DHT22;11139;51.284;7.226;2022-12-18T05:22:54;-1.20;99.90
21950;DHT22;11139;51.284;7.226;2022-12-18T05:25:20;-1.20;99.90
21950;DHT22;11139;51.284;7.226;2022-12-18T05:27:46;-1.20;99.90
21950;DHT22;11139;51.284;7.226;2022-12-18T05:30:12;-1.20;99.90
21950;DHT22;11139;51.284;7.226;2022-12-18T05:32:37;-1.20;99.90
21950;DHT22;11139;51.284;7.226;2022-12-18T05:35:03;-1.20;99.90
21950;DHT22;11139;51.284;7.226;2022-12-18T05:37:29;-1.30;99.90
21950;DHT22;11139;51.284;7.226;2022-12-18T05:39:55;-1.30;99.90
21950;DHT22;11139;51.284;7.226;2022-12-18T05:42:20;-1.30;99.90
21950;DHT22;11139;51.284;7.226;2022-12-18T05:44:45;-1.30;99.90
21950;DHT22;11139;51.284;7.226;2022-12-18T05:47:11;-1.30;99.90
21950;DHT22;11139;51.284;7.226;2022-12-18T05:49:36;-1.30;99.90
21950;DHT22;11139;51.284;7.226;2022-12-18T05:52:02;-1.30;99.90
21950;DHT22;11139;51.284;7.226;2022-12-18T05:54:28;-1.30;99.90
21950;DHT22;11139;51.284;7.226;2022-12-18T05:56:53;-1.30;99.90
21950;DHT22;11139;51.284;7.226;2022-12-18T05:59:19;-1.30;99.90
21950;DHT22;11139;51.284;7.226;2022-12-18T06:01:45;-1.30;99.90
21950;DHT22;11139;51.284;7.226;2022-12-18T06:04:10;-1.30;99.90
21950;DHT22;11139;51.284;7.226;2022-12-18T06:06:36;-1.30;99.90
21950;DHT22;11139;51.284;7.226;2022-12-18T06:09:02;-1.30;99.90
21950;DHT22;11139;51.284;7.226;2022-12-18T06:11:33;-1.30;99.90
21950;DHT22;11139;51.284;7.226;2022-12-18T06:13:59;-1.30;99.90
21950;DHT22;11139;51.284;7.226;2022-12-18T06:16:25;-1.40;99.90
21950;DHT22;11139;51.284;7.226;2022-12-18T06:18:51;-1.30;99.90
21950;DHT22;11139;51.284;7.226;2022-12-18T06:21:16;-1.30;99.90
21950;DHT22;11139;51.284;7.226;2022-12-18T06:23:42;-1.40;99.90
21950;DHT22;11139;51.284;7.226;2022-12-18T06:26:08;-1.30;99.90
21950;DHT22;11139;51.284;7.226;2022-12-18T06:28:34;-1.40;99.90
21950;DHT22;11139;51.284;7.226;2022-12-18T06:31:02;-1.40;99.90
21950;DHT22;11139;51.284;7.226;2022-12-18T06:33:28;-1.30;99.90
21950;DHT22;11139;51.284;7.226;2022-12-18T06:35:54;-1.40;99.90
21950;DHT22;11139;51.284;7.226;2022-12-18T06:38:20;-1.40;99.90
21950;DHT22;11139;51.284;7.226;2022-12-18T06:40:45;-1.40;99.90
21950;DHT22;11139;51.284;7.226;2022-12-18T06:43:13;-1.40;99.90
21950;DHT22;11139;51.284;7.226;2022-12-18T06:45:45;-1.40;99.90
21950;DHT22;11139;51.284;7.226;2022-12-18T06:48:14;-1.40;99.90
21950;DHT22;11139;51.284;7.226;2022-12-18T06:50:43;-1.40;99.90
21950;DHT22;11139;51.284;7.226;2022-12-18T06:53:11;-1.40;99.90
21950;DHT22;11139;51.284;7.226;2022-12-18T06:55:37;-1.40;99.90
21950;DHT22;11139;51.284;7.226;2022-12-18T06:58:02;-1.40;99.90
21950;DHT22;11139;51.284;7.226;2022-12-18T07:00:33;-1.40;99.90
21950;DHT22;11139;51.284;7.226;2022-12-18T07:02:59;-1.40;99.90
21950;DHT22;11139;51.284;7.226;2022-12-18T07:05:24;-1.40;99.90
21950;DHT22;11139;51.284;7.226;2022-12-18T07:07:50;-1.40;99.90
21950;DHT22;11139;51.284;7.226;2022-12-18T07:10:16;-1.40;99.90
21950;DHT22;11139;51.284;7.226;2022-12-18T07:12:41;-1.40;99.90
21950;DHT22;11139;51.284;7.226;2022-12-18T07:15:07;-1.50;99.90
21950;DHT22;11139;51.284;7.226;2022-12-18T07:17:32;-1.50;99.90
21950;DHT22;11139;51.284;7.226;2022-12-18T07:19:58;-1.40;99.90
21950;DHT22;11139;51.284;7.226;2022-12-18T07:22:24;-1.50;99.90
21950;DHT22;11139;51.284;7.226;2022-12-18T07:24:50;-1.50;99.90
21950;DHT22;11139;51.284;7.226;2022-12-18T07:27:19;-1.50;99.90
21950;DHT22;11139;51.284;7.226;2022-12-18T07:29:44;-1.50;99.90
21950;DHT22;11139;51.284;7.226;2022-12-18T07:32:10;-1.50;99.90
21950;DHT22;11139;51.284;7.226;2022-12-18T07:34:37;-1.50;99.90
21950;DHT22;11139;51.284;7.226;2022-12-18T07:37:04;-1.50;99.90
21950;DHT22;11139;51.284;7.226;2022-12-18T07:39:29;-1.50;99.90
21950;DHT22;11139;51.284;7.226;2022-12-18T07:41:55;-1.50;99.90
21950;DHT22;11139;51.284;7.226;2022-12-18T07:44:39;-1.50;99.90
21950;DHT22;11139;51.284;7.226;2022-12-18T07:47:05;-1.50;99.90
21950;DHT22;11139;51.284;7.226;2022-12-18T07:49:33;-1.50;99.90
21950;DHT22;11139;51.284;7.226;2022-12-18T07:52:01;-1.50;99.90
21950;DHT22;11139;51.284;7.226;2022-12-18T07:54:27;-1.50;99.90
21950;DHT22;11139;51.284;7.226;2022-12-18T07:56:55;-1.50;99.90
21950;DHT22;11139;51.284;7.226;2022-12-18T07:59:20;-1.50;99.90
21950;DHT22;11139;51.284;7.226;2022-12-18T08:01:46;-1.50;99.90
21950;DHT22;11139;51.284;7.226;2022-12-18T08:04:14;-1.50;99.90
21950;DHT22;11139;51.284;7.226;2022-12-18T08:06:39;-1.50;99.90
21950;DHT22;11139;51.284;7.226;2022-12-18T08:09:05;-1.50;99.90
21950;DHT22;11139;51.284;7.226;2022-12-18T08:11:31;-1.60;99.90
21950;DHT22;11139;51.284;7.226;2022-12-18T08:13:57;-1.60;99.90
21950;DHT22;11139;51.284;7.226;2022-12-18T08:16:29;-1.50;99.90
21950;DHT22;11139;51.284;7.226;2022-12-18T08:19:01;-1.60;99.90
21950;DHT22;11139;51.284;7.226;2022-12-18T08:21:30;-1.50;99.90
21950;DHT22;11139;51.284;7.226;2022-12-18T08:23:59;-1.50;99.90
21950;DHT22;11139;51.284;7.226;2022-12-18T08:26:31;-1.50;99.90
21950;DHT22;11139;51.284;7.226;2022-12-18T08:28:59;-1.60;99.90
21950;DHT22;11139;51.284;7.226;2022-12-18T08:31:28;-1.60;99.90
21950;DHT22;11139;51.284;7.226;2022-12-18T08:33:54;-1.60;99.90
21950;DHT22;11139;51.284;7.226;2022-12-18T08:36:20;-1.60;99.90
21950;DHT22;11139;51.284;7.226;2022-12-18T08:38:46;-1.60;99.90
21950;DHT22;11139;51.284;7.226;2022-12-18T08:41:13;-1.60;99.90
21950;DHT22;11139;51.284;7.226;2022-12-18T08:43:38;-1.60;99.90
21950;DHT22;11139;51.284;7.226;2022-12-18T08:46:23;-1.50;99.90
21950;DHT22;11139;51.284;7.226;2022-12-18T08:48:50;-1.50;99.90
21950;DHT22;11139;51.284;7.226;2022-12-18T08:51:16;-1.50;99.90
21950;DHT22;11139;51.284;7.226;2022-12-18T08:53:42;-1.60;99.90
21950;DHT22;11139;51.284;7.226;2022-12-18T08:56:08;-1.60;99.90
21950;DHT22;11139;51.284;7.226;2022-12-18T08:58:36;-1.60;99.90
21950;DHT22;11139;51.284;7.226;2022-12-18T09:01:05;-1.60;99.90
21950;DHT22;11139;51.284;7.226;2022-12-18T09:03:33;-1.60;99.90
21950;DHT22;11139;51.284;7.226;2022-12-18T09:05:59;-1.60;99.90
21950;DHT22;11139;51.284;7.226;2022-12-18T09:08:24;-1.50;99.90
21950;DHT22;11139;51.284;7.226;2022-12-18T09:10:50;-1.50;99.90
21950;DHT22;11139;51.284;7.226;2022-12-18T09:13:16;-1.50;99.90
21950;DHT22;11139;51.284;7.226;2022-12-18T09:15:42;-1.50;99.90
21950;DHT22;11139;51.284;7.226;2022-12-18T09:18:09;-1.50;99.90
21950;DHT22;11139;51.284;7.226;2022-12-18T09:20:35;-1.50;99.90
21950;DHT22;11139;51.284;7.226;2022-12-18T09:23:01;-1.60;99.90
21950;DHT22;11139;51.284;7.226;2022-12-18T09:25:26;-1.60;99.90
21950;DHT22;11139;51.284;7.226;2022-12-18T09:27:57;-1.60;99.90
21950;DHT22;11139;51.284;7.226;2022-12-18T09:30:22;-1.60;99.90
21950;DHT22;11139;51.284;7.226;2022-12-18T09:32:48;-1.50;99.90
21950;DHT22;11139;51.284;7.226;2022-12-18T09:35:13;-1.50;99.90
21950;DHT22;11139;51.284;7.226;2022-12-18T09:37:39;-1.50;99.90
21950;DHT22;11139;51.284;7.226;2022-12-18T09:40:04;-1.50;99.90
21950;DHT22;11139;51.284;7.226;2022-12-18T09:42:30;-1.50;99.90
21950;DHT22;11139;51.284;7.226;2022-12-18T09:44:56;-1.50;99.90
21950;DHT22;11139;51.284;7.226;2022-12-18T09:47:23;-1.50;99.90
21950;DHT22;11139;51.284;7.226;2022-12-18T09:49:54;-1.50;99.90
21950;DHT22;11139;51.284;7.226;2022-12-18T09:57:45;-1.50;99.90
21950;DHT22;11139;51.284;7.226;2022-12-18T10:02:41;-1.50;99.90
21950;DHT22;11139;51.284;7.226;2022-12-18T10:07:47;-1.50;99.90
21950;DHT22;11139;51.284;7.226;2022-12-18T10:10:38;-1.50;99.90
21950;DHT22;11139;51.284;7.226;2022-12-18T10:13:12;-1.50;99.90
21950;DHT22;11139;51.284;7.226;2022-12-18T10:18:12;-1.50;99.90
21950;DHT22;11139;51.284;7.226;2022-12-18T10:20:42;-1.50;99.90
21950;DHT22;11139;51.284;7.226;2022-12-18T10:23:15;-1.50;99.90
21950;DHT22;11139;51.284;7.226;2022-12-18T10:28:15;-1.40;99.90
21950;DHT22;11139;51.284;7.226;2022-12-18T10:30:41;-1.40;99.90
21950;DHT22;11139;51.284;7.226;2022-12-18T10:33:18;-1.40;99.90
21950;DHT22;11139;51.284;7.226;2022-12-18T10:35:44;-1.40;99.90
21950;DHT22;11139;51.284;7.226;2022-12-18T10:43:23;-1.40;99.90
21950;DHT22;11139;51.284;7.226;2022-12-18T10:48:24;-1.40;99.90
21950;DHT22;11139;51.284;7.226;2022-12-18T10:50:52;-1.40;99.90
21950;DHT22;11139;51.284;7.226;2022-12-18T10:53:25;-1.40;99.90
21950;DHT22;11139;51.284;7.226;2022-12-18T10:55:54;-1.40;99.90
21950;DHT22;11139;51.284;7.226;2022-12-18T10:58:25;-1.40;99.90
21950;DHT22;11139;51.284;7.226;2022-12-18T11:01:14;-1.40;99.90
21950;DHT22;11139;51.284;7.226;2022-12-18T11:06:03;-1.30;99.90
21950;DHT22;11139;51.284;7.226;2022-12-18T11:08:29;-1.40;99.90
21950;DHT22;11139;51.284;7.226;2022-12-18T11:10:55;-1.30;99.90
21950;DHT22;11139;51.284;7.226;2022-12-18T11:13:21;-1.30;99.90
21950;DHT22;11139;51.284;7.226;2022-12-18T11:15:49;-1.30;99.90
21950;DHT22;11139;51.284;7.226;2022-12-18T11:20:50;-1.40;99.90
21950;DHT22;11139;51.284;7.226;2022-12-18T11:23:16;-1.30;99.90
21950;DHT22;11139;51.284;7.226;2022-12-18T11:25:50;-1.30;99.90
21950;DHT22;11139;51.284;7.226;2022-12-18T11:28:34;-1.30;99.90
21950;DHT22;11139;51.284;7.226;2022-12-18T11:33:56;-1.30;99.90
21950;DHT22;11139;51.284;7.226;2022-12-18T11:36:21;-1.30;99.90
21950;DHT22;11139;51.284;7.226;2022-12-18T11:38:47;-1.30;99.90
21950;DHT22;11139;51.284;7.226;2022-12-18T11:48:41;-1.20;99.90
21950;DHT22;11139;51.284;7.226;2022-12-18T11:51:10;-1.20;99.90
21950;DHT22;11139;51.284;7.226;2022-12-18T11:53:38;-1.20;99.90
21950;DHT22;11139;51.284;7.226;2022-12-18T12:01:46;-1.20;99.90
21950;DHT22;11139;51.284;7.226;2022-12-18T12:12:15;-1.10;99.90
21950;DHT22;11139;51.284;7.226;2022-12-18T12:14:45;-1.10;99.90
21950;DHT22;11139;51.284;7.226;2022-12-18T12:22:44;-1.10;99.90
21950;DHT22;11139;51.284;7.226;2022-12-18T12:25:33;-1.10;99.90
21950;DHT22;11139;51.284;7.226;2022-12-18T12:38:41;-1.10;99.90
21950;DHT22;11139;51.284;7.226;2022-12-18T12:41:12;-1.10;99.90
21950;DHT22;11139;51.284;7.226;2022-12-18T12:44:00;-1.10;99.90
21950;DHT22;11139;51.284;7.226;2022-12-18T12:46:26;-1.00;99.90
21950;DHT22;11139;51.284;7.226;2022-12-18T12:48:54;-1.10;99.90
21950;DHT22;11139;51.284;7.226;2022-12-18T12:51:24;-1.00;99.90
21950;DHT22;11139;51.284;7.226;2022-12-18T12:53:51;-1.00;99.90
21950;DHT22;11139;51.284;7.226;2022-12-18T12:56:20;-1.00;99.90
21950;DHT22;11139;51.284;7.226;2022-12-18T12:58:49;-1.00;99.90
21950;DHT22;11139;51.284;7.226;2022-12-18T13:08:53;-1.00;99.90
21950;DHT22;11139;51.284;7.226;2022-12-18T13:11:29;-1.00;99.90
21950;DHT22;11139;51.284;7.226;2022-12-18T13:14:24;-1.00;99.90
21950;DHT22;11139;51.284;7.226;2022-12-18T13:17:15;-1.00;99.90
21950;DHT22;11139;51.284;7.226;2022-12-18T13:19:42;-1.00;99.90
21950;DHT22;11139;51.284;7.226;2022-12-18T13:22:24;-1.00;99.90
21950;DHT22;11139;51.284;7.226;2022-12-18T13:24:50;-1.00;99.90
21950;DHT22;11139;51.284;7.226;2022-12-18T13:30:11;-0.90;99.90
21950;DHT22;11139;51.284;7.226;2022-12-18T13:33:17;-0.90;99.90
21950;DHT22;11139;51.284;7.226;2022-12-18T13:35:37;-1.00;99.90
21950;DHT22;11139;51.284;7.226;2022-12-18T13:38:18;-1.00;99.90
21950;DHT22;11139;51.284;7.226;2022-12-18T13:45:47;-1.00;99.90
21950;DHT22;11139;51.284;7.226;2022-12-18T13:48:21;-0.90;99.90
21950;DHT22;11139;51.284;7.226;2022-12-18T13:50:55;-1.00;99.90
21950;DHT22;11139;51.284;7.226;2022-12-18T13:53:26;-1.00;99.90
21950;DHT22;11139;51.284;7.226;2022-12-18T13:55:52;-0.90;99.90
21950;DHT22;11139;51.284;7.226;2022-12-18T13:58:18;-0.90;99.90
21950;DHT22;11139;51.284;7.226;2022-12-18T14:00:47;-1.00;99.90
21950;DHT22;11139;51.284;7.226;2022-12-18T14:03:17;-0.90;99.90
21950;DHT22;11139;51.284;7.226;2022-12-18T14:05:43;-0.90;99.90
21950;DHT22;11139;51.284;7.226;2022-12-18T14:08:15;-0.90;99.90
21950;DHT22;11139;51.284;7.226;2022-12-18T14:10:42;-0.90;99.90
21950;DHT22;11139;51.284;7.226;2022-12-18T14:13:08;-0.90;99.90
21950;DHT22;11139;51.284;7.226;2022-12-18T14:15:45;-0.90;99.90
21950;DHT22;11139;51.284;7.226;2022-12-18T14:21:02;-0.90;99.90
21950;DHT22;11139;51.284;7.226;2022-12-18T14:25:57;-0.90;99.90
21950;DHT22;11139;51.284;7.226;2022-12-18T14:28:23;-1.00;99.90
21950;DHT22;11139;51.284;7.226;2022-12-18T14:30:49;-0.90;99.90
21950;DHT22;11139;51.284;7.226;2022-12-18T14:33:19;-0.90;99.90
21950;DHT22;11139;51.284;7.226;2022-12-18T14:36:13;-1.00;99.90
21950;DHT22;11139;51.284;7.226;2022-12-18T14:38:37;-1.00;99.90
21950;DHT22;11139;51.284;7.226;2022-12-18T14:41:04;-1.00;99.90
21950;DHT22;11139;51.284;7.226;2022-12-18T14:43:32;-0.90;99.90
21950;DHT22;11139;51.284;7.226;2022-12-18T14:45:57;-0.90;99.90
21950;DHT22;11139;51.284;7.226;2022-12-18T14:48:35;-0.90;99.90
21950;DHT22;11139;51.284;7.226;2022-12-18T14:51:02;-0.90;99.90
21950;DHT22;11139;51.284;7.226;2022-12-18T14:53:38;-1.00;99.90
21950;DHT22;11139;51.284;7.226;2022-12-18T14:56:14;-0.90;99.90
21950;DHT22;11139;51.284;7.226;2022-12-18T14:58:44;-0.90;99.90
21950;DHT22;11139;51.284;7.226;2022-12-18T15:01:17;-0.90;99.90
21950;DHT22;11139;51.284;7.226;2022-12-18T15:03:43;-0.90;99.90
21950;DHT22;11139;51.284;7.226;2022-12-18T15:06:21;-0.90;99.90
21950;DHT22;11139;51.284;7.226;2022-12-18T15:08:49;-0.90;99.90
21950;DHT22;11139;51.284;7.226;2022-12-18T15:16:58;-0.90;99.90
21950;DHT22;11139;51.284;7.226;2022-12-18T15:19:39;-0.90;99.90
21950;DHT22;11139;51.284;7.226;2022-12-18T15:22:18;-0.90;99.90
21950;DHT22;11139;51.284;7.226;2022-12-18T15:24:44;-0.90;99.90
21950;DHT22;11139;51.284;7.226;2022-12-18T15:27:20;-0.80;99.90
21950;DHT22;11139;51.284;7.226;2022-12-18T15:32:30;-0.90;99.90
21950;DHT22;11139;51.284;7.226;2022-12-18T15:37:33;-0.80;99.90
21950;DHT22;11139;51.284;7.226;2022-12-18T15:39:59;-0.90;99.90
21950;DHT22;11139;51.284;7.226;2022-12-18T15:42:24;-0.90;99.90
21950;DHT22;11139;51.284;7.226;2022-12-18T15:45:12;-0.90;99.90
21950;DHT22;11139;51.284;7.226;2022-12-18T15:47:38;-0.80;99.90
21950;DHT22;11139;51.284;7.226;2022-12-18T15:50:03;-0.80;99.90
21950;DHT22;11139;51.284;7.226;2022-12-18T15:52:29;-0.90;99.90
21950;DHT22;11139;51.284;7.226;2022-12-18T15:54:54;-0.80;99.90
21950;DHT22;11139;51.284;7.226;2022-12-18T15:57:39;-0.80;99.90
21950;DHT22;11139;51.284;7.226;2022-12-18T16:00:04;-0.80;99.90
21950;DHT22;11139;51.284;7.226;2022-12-18T16:02:30;-0.80;99.90
21950;DHT22;11139;51.284;7.226;2022-12-18T16:04:55;-0.80;99.90
21950;DHT22;11139;51.284;7.226;2022-12-18T16:07:21;-0.80;99.90
21950;DHT22;11139;51.284;7.226;2022-12-18T16:09:46;-0.80;99.90
21950;DHT22;11139;51.284;7.226;2022-12-18T16:12:14;-0.80;99.90
21950;DHT22;11139;51.284;7.226;2022-12-18T16:14:40;-0.90;99.90
21950;DHT22;11139;51.284;7.226;2022-12-18T16:17:08;-0.80;99.90
21950;DHT22;11139;51.284;7.226;2022-12-18T16:19:34;-0.80;99.90
21950;DHT22;11139;51.284;7.226;2022-12-18T16:21:59;-0.90;99.90
21950;DHT22;11139;51.284;7.226;2022-12-18T16:24:26;-0.80;99.90
21950;DHT22;11139;51.284;7.226;2022-12-18T16:26:52;-0.80;99.90
21950;DHT22;11139;51.284;7.226;2022-12-18T16:29:18;-0.80;99.90
21950;DHT22;11139;51.284;7.226;2022-12-18T16:31:44;-0.80;99.90
21950;DHT22;11139;51.284;7.226;2022-12-18T16:34:11;-0.80;99.90
21950;DHT22;11139;51.284;7.226;2022-12-18T16:36:36;-0.80;99.90
21950;DHT22;11139;51.284;7.226;2022-12-18T16:39:01;-0.80;99.90
21950;DHT22;11139;51.284;7.226;2022-12-18T16:41:27;-0.80;99.90
21950;DHT22;11139;51.284;7.226;2022-12-18T16:43:56;-0.80;99.90
21950;DHT22;11139;51.284;7.226;2022-12-18T16:46:21;-0.80;99.90
21950;DHT22;11139;51.284;7.226;2022-12-18T16:48:47;-0.80;99.90
21950;DHT22;11139;51.284;7.226;2022-12-18T16:51:12;-0.80;99.90
21950;DHT22;11139;51.284;7.226;2022-12-18T16:53:38;-0.80;99.90
21950;DHT22;11139;51.284;7.226;2022-12-18T16:56:03;-0.80;99.90
21950;DHT22;11139;51.284;7.226;2022-12-18T16:58:29;-0.80;99.90
21950;DHT22;11139;51.284;7.226;2022-12-18T17:00:54;-0.80;99.90
21950;DHT22;11139;51.284;7.226;2022-12-18T17:03:20;-0.80;99.90
21950;DHT22;11139;51.284;7.226;2022-12-18T17:05:45;-0.80;99.90
21950;DHT22;11139;51.284;7.226;2022-12-18T17:08:11;-0.80;99.90
21950;DHT22;11139;51.284;7.226;2022-12-18T17:10:36;-0.80;99.90
21950;DHT22;11139;51.284;7.226;2022-12-18T17:13:02;-0.80;99.90
21950;DHT22;11139;51.284;7.226;2022-12-18T17:15:27;-0.80;99.90
21950;DHT22;11139;51.284;7.226;2022-12-18T17:17:53;-0.80;99.90
21950;DHT22;11139;51.284;7.226;2022-12-18T17:20:18;-0.80;99.90
21950;DHT22;11139;51.284;7.226;2022-12-18T17:22:44;-0.80;99.90
21950;DHT22;11139;51.284;7.226;2022-12-18T17:25:09;-0.80;99.90
21950;DHT22;11139;51.284;7.226;2022-12-18T17:27:35;-0.80;99.90
21950;DHT22;11139;51.284;7.226;2022-12-18T17:30:00;-0.80;99.90
21950;DHT22;11139;51.284;7.226;2022-12-18T17:32:26;-0.80;99.90
21950;DHT22;11139;51.284;7.226;2022-12-18T17:34:51;-0.70;99.90
21950;DHT22;11139;51.284;7.226;2022-12-18T17:37:17;-0.80;99.90
21950;DHT22;11139;51.284;7.226;2022-12-18T17:39:43;-0.80;99.90
21950;DHT22;11139;51.284;7.226;2022-12-18T17:42:08;-0.80;99.90
21950;DHT22;11139;51.284;7.226;2022-12-18T17:44:38;-0.80;99.90
21950;DHT22;11139;51.284;7.226;2022-12-18T17:47:03;-0.80;99.90